Time;durP1;ratioP1;P1;durP2;ratioP2;P2;SDS_P1;SDS_P2;PMS_P1;PMS_P2;Temp;Humidity;BMP_temperature;BMP_pressure;BME280_temperature;BME280_humidity;BME280_pressure;Samples;Min_cycle;Max_cycle;Signal;HPM_P1;HPM_P2
2022/11/23 00:01:29;;;;;;;54.17;25.05;;;5.40;78.20;;;;;;2374282;56;21602;-50
2022/11/23 00:03:57;;;;;;;56.67;25.88;;;5.40;78.20;;;;;;2374104;56;22165;-49
2022/11/23 00:06:25;;;;;;;51.47;24.52;;;5.50;78.20;;;;;;2373863;56;21539;-54
2022/11/23 00:08:53;;;;;;;51.30;23.52;;;5.50;78.10;;;;;;2374310;56;21032;-52
2022/11/23 00:11:22;;;;;;;55.92;26.00;;;5.50;78.20;;;;;;2374558;56;21083;-51
2022/11/23 00:13:50;;;;;;;51.03;22.83;;;5.50;78.00;;;;;;2374224;56;21027;-52
2022/11/23 00:16:19;;;;;;;50.40;21.75;;;5.50;78.00;;;;;;2373387;56;21020;-50
2022/11/23 00:18:47;;;;;;;46.95;23.17;;;5.50;78.10;;;;;;2373697;56;21629;-54
2022/11/23 00:21:16;;;;;;;45.58;23.80;;;5.60;78.20;;;;;;2372779;56;21595;-56
2022/11/23 00:23:44;;;;;;;49.25;23.38;;;5.60;78.10;;;;;;2373204;56;21162;-50
2022/11/23 00:26:11;;;;;;;50.33;23.77;;;5.60;78.00;;;;;;2373424;56;21037;-49
2022/11/23 00:28:39;;;;;;;51.20;24.10;;;5.60;78.00;;;;;;2374107;56;21547;-49
2022/11/23 00:31:06;;;;;;;54.55;24.20;;;5.60;78.00;;;;;;2374244;56;21043;-52
2022/11/23 00:33:34;;;;;;;51.63;22.73;;;5.60;77.90;;;;;;2372876;56;21028;-50
2022/11/23 00:36:02;;;;;;;49.42;23.15;;;5.60;77.90;;;;;;2373159;56;21603;-49
2022/11/23 00:38:29;;;;;;;52.17;23.20;;;5.60;77.90;;;;;;2373128;56;21567;-50
2022/11/23 00:43:35;;;;;;;50.03;23.30;;;5.50;77.90;;;;;;2355724;57;22574;-53
2022/11/23 00:46:05;;;;;;;52.92;23.27;;;5.60;78.00;;;;;;2345599;57;21117;-51
2022/11/23 00:48:33;;;;;;;47.88;24.02;;;5.70;78.00;;;;;;2346692;57;21649;-50
2022/11/23 00:51:01;;;;;;;45.20;21.77;;;5.70;78.00;;;;;;2346573;57;21526;-50
2022/11/23 00:53:28;;;;;;;50.28;24.20;;;5.70;78.00;;;;;;2346083;57;21058;-51
2022/11/23 00:55:57;;;;;;;52.50;22.87;;;5.70;77.90;;;;;;2345505;57;21022;-48
2022/11/23 00:58:25;;;;;;;49.97;24.00;;;5.70;77.80;;;;;;2345518;57;21613;-52
2022/11/23 01:01:01;;;;;;;53.15;23.65;;;5.70;77.60;;;;;;2345274;57;21038;-54
2022/11/23 01:03:29;;;;;;;52.72;23.02;;;5.70;77.60;;;;;;2345450;57;21390;-49
2022/11/23 01:06:00;;;;;;;45.97;23.45;;;5.70;77.70;;;;;;2344041;57;21618;-48
2022/11/23 01:08:27;;;;;;;44.78;22.13;;;5.70;77.70;;;;;;2345478;57;21593;-53
2022/11/23 01:10:59;;;;;;;47.53;21.25;;;5.80;77.80;;;;;;2344912;57;21042;-51
2022/11/23 01:13:27;;;;;;;54.23;24.43;;;5.80;77.80;;;;;;2345642;57;21109;-51
2022/11/23 01:15:54;;;;;;;51.20;23.38;;;5.80;77.70;;;;;;2344149;57;21050;-52
2022/11/23 01:18:21;;;;;;;49.33;23.70;;;5.80;77.60;;;;;;2344909;57;21046;-48
2022/11/23 01:20:49;;;;;;;48.47;22.55;;;5.80;77.60;;;;;;2344360;57;21609;-51
2022/11/23 01:23:16;;;;;;;42.15;21.45;;;5.90;77.60;;;;;;2343952;57;21045;-52
2022/11/23 01:25:43;;;;;;;47.10;22.75;;;5.90;77.80;;;;;;2344328;57;21585;-50
2022/11/23 01:28:10;;;;;;;53.10;21.40;;;5.90;77.60;;;;;;2344853;57;21411;-47
2022/11/23 01:30:37;;;;;;;47.25;21.58;;;5.90;77.40;;;;;;2344978;57;21117;-49
2022/11/23 01:33:05;;;;;;;47.58;21.60;;;5.90;77.40;;;;;;2344133;57;21046;-50
2022/11/23 01:35:32;;;;;;;46.90;20.37;;;5.90;77.30;;;;;;2344525;57;21049;-50
2022/11/23 01:37:59;;;;;;;48.83;21.80;;;6.00;77.40;;;;;;2345037;57;21054;-50
2022/11/23 01:40:26;;;;;;;45.80;22.20;;;5.90;77.40;;;;;;2344348;57;21077;-48
2022/11/23 01:42:57;;;;;;;43.87;21.70;;;6.00;77.30;;;;;;2344912;57;21061;-51
2022/11/23 01:45:37;;;;;;;43.30;21.37;;;6.00;77.30;;;;;;2344972;57;21526;-49
2022/11/23 01:48:13;;;;;;;42.97;20.10;;;6.00;77.20;;;;;;2344912;57;21101;-51
2022/11/23 01:50:41;;;;;;;46.75;22.15;;;6.00;77.10;;;;;;2344011;57;21684;-52
2022/11/23 01:53:09;;;;;;;42.03;21.00;;;6.00;77.00;;;;;;2344371;57;21540;-50
2022/11/23 01:55:37;;;;;;;42.13;19.73;;;6.00;77.10;;;;;;2343372;57;21097;-48
2022/11/23 01:58:07;;;;;;;40.12;20.00;;;6.00;77.00;;;;;;2344639;57;21128;-50
2022/11/23 02:00:34;;;;;;;43.60;21.15;;;6.00;76.90;;;;;;2345524;57;21113;-47
2022/11/23 02:03:03;;;;;;;40.20;20.12;;;6.00;76.90;;;;;;2344992;57;21685;-48
2022/11/23 02:05:34;;;;;;;41.60;19.83;;;6.10;76.90;;;;;;2345154;57;21821;-50
2022/11/23 02:08:02;;;;;;;37.28;19.52;;;6.10;76.80;;;;;;2343909;57;21157;-52
2022/11/23 02:10:30;;;;;;;42.80;20.77;;;6.10;76.80;;;;;;2343903;57;21145;-52
2022/11/23 02:13:01;;;;;;;42.55;20.15;;;6.00;76.70;;;;;;2343712;57;21117;-51
2022/11/23 02:15:28;;;;;;;45.42;21.42;;;6.10;76.80;;;;;;2342624;57;21133;-50
2022/11/23 02:17:58;;;;;;;36.97;20.23;;;6.10;76.60;;;;;;2344432;57;21117;-49
2022/11/23 02:20:25;;;;;;;42.05;20.50;;;6.10;76.60;;;;;;2344616;57;21522;-51
2022/11/23 02:23:04;;;;;;;43.40;21.23;;;6.00;76.50;;;;;;2343197;57;21624;-50
2022/11/23 02:25:37;;;;;;;42.00;21.73;;;6.00;76.40;;;;;;2343830;57;21046;-53
2022/11/23 02:28:06;;;;;;;43.75;20.12;;;6.00;76.50;;;;;;2344037;57;21109;-49
2022/11/23 02:33:08;;;;;;;44.72;24.90;;;6.00;76.60;;;;;;2334624;57;28713;-51
2022/11/23 02:35:35;;;;;;;45.38;21.50;;;5.80;78.40;;;;;;2345120;57;21053;-51
2022/11/23 02:38:05;;;;;;;45.42;22.70;;;6.00;78.00;;;;;;2344534;57;21054;-51
2022/11/23 02:40:35;;;;;;;43.30;21.70;;;6.00;77.40;;;;;;2344870;57;21046;-49
2022/11/23 02:45:52;;;;;;;45.05;26.17;;;6.10;76.90;;;;;;2349502;56;38861;-50
2022/11/23 02:48:19;;;;;;;44.72;22.23;;;5.90;78.20;;;;;;2371911;56;21574;-49
2022/11/23 02:50:46;;;;;;;42.28;21.33;;;6.00;77.60;;;;;;2373418;56;21712;-49
2022/11/23 02:53:14;;;;;;;40.80;20.55;;;6.10;77.00;;;;;;2373733;56;21047;-49
2022/11/23 02:55:41;;;;;;;38.47;20.37;;;6.10;76.80;;;;;;2374061;56;21617;-50
2022/11/23 02:58:08;;;;;;;44.00;21.80;;;6.10;76.60;;;;;;2373943;56;21577;-49
2022/11/23 03:00:36;;;;;;;36.08;17.55;;;6.10;76.60;;;;;;2373383;56;21051;-49
2022/11/23 03:03:03;;;;;;;43.17;21.52;;;6.10;76.40;;;;;;2373288;56;21597;-51
2022/11/23 03:05:30;;;;;;;40.00;19.90;;;6.10;76.50;;;;;;2372222;56;21495;-48
2022/11/23 03:07:58;;;;;;;43.47;21.52;;;6.10;76.60;;;;;;2374112;56;21065;-49
2022/11/23 03:10:25;;;;;;;40.20;20.25;;;6.10;76.60;;;;;;2373565;56;21098;-50
2022/11/23 03:12:54;;;;;;;43.85;20.83;;;6.10;76.70;;;;;;2373633;56;21063;-49
2022/11/23 03:15:22;;;;;;;41.83;20.95;;;6.10;76.60;;;;;;2373738;56;21573;-52
2022/11/23 03:17:49;;;;;;;43.53;21.85;;;6.10;76.60;;;;;;2373523;56;21985;-50
2022/11/23 03:20:16;;;;;;;45.38;21.65;;;6.10;76.60;;;;;;2373619;56;21685;-47
2022/11/23 03:22:43;;;;;;;44.47;21.67;;;6.10;76.70;;;;;;2372842;56;21044;-50
2022/11/23 03:25:11;;;;;;;44.22;22.45;;;6.10;76.80;;;;;;2373375;56;21055;-49
2022/11/23 03:27:38;;;;;;;41.85;20.08;;;6.00;76.90;;;;;;2373746;56;21063;-49
2022/11/23 03:30:08;;;;;;;52.35;22.20;;;6.10;77.00;;;;;;2373384;56;21042;-50
2022/11/23 03:32:35;;;;;;;48.58;21.98;;;6.00;77.10;;;;;;2373861;56;21042;-48
2022/11/23 03:35:03;;;;;;;41.33;22.15;;;6.00;77.00;;;;;;2373971;56;21527;-50
2022/11/23 03:37:30;;;;;;;45.97;22.30;;;6.00;77.10;;;;;;2373756;56;21590;-49
2022/11/23 03:39:58;;;;;;;37.80;20.15;;;6.10;77.20;;;;;;2372126;56;21030;-48
2022/11/23 03:42:25;;;;;;;46.45;21.95;;;6.10;77.10;;;;;;2372120;56;21051;-52
2022/11/23 03:44:52;;;;;;;44.95;22.00;;;6.10;77.20;;;;;;2373389;56;21055;-51
2022/11/23 03:47:19;;;;;;;42.35;21.33;;;6.10;77.20;;;;;;2373846;56;21047;-49
2022/11/23 03:49:47;;;;;;;44.88;21.70;;;6.10;77.20;;;;;;2372501;56;21058;-50
2022/11/23 03:52:14;;;;;;;41.05;20.90;;;6.10;77.20;;;;;;2372991;56;21644;-49
2022/11/23 03:57:17;;;;;;;44.05;21.33;;;6.20;77.90;;;;;;2327234;57;22058;-48
2022/11/23 03:59:44;;;;;;;41.55;20.60;;;6.20;77.20;;;;;;2318478;58;21135;-48
2022/11/23 04:02:11;;;;;;;37.33;19.77;;;6.20;77.20;;;;;;2318476;58;21119;-48
2022/11/23 04:04:38;;;;;;;46.95;21.12;;;6.20;77.30;;;;;;2322143;57;21060;-48
2022/11/23 04:07:06;;;;;;;39.20;18.85;;;6.20;77.30;;;;;;2345686;57;21487;-49
2022/11/23 04:09:33;;;;;;;38.42;19.95;;;6.20;77.30;;;;;;2345447;57;21537;-47
2022/11/23 04:12:00;;;;;;;44.88;21.25;;;6.20;77.20;;;;;;2345651;57;21046;-48
2022/11/23 04:14:27;;;;;;;41.88;20.88;;;6.20;77.20;;;;;;2345935;57;21048;-48
2022/11/23 04:16:54;;;;;;;42.62;20.05;;;6.20;77.10;;;;;;2345367;57;21133;-49
2022/11/23 04:19:21;;;;;;;45.70;21.15;;;6.20;77.20;;;;;;2345577;57;21105;-49
2022/11/23 04:21:48;;;;;;;37.63;20.60;;;6.20;77.20;;;;;;2345407;57;21057;-49
2022/11/23 04:24:15;;;;;;;40.72;19.25;;;6.10;77.20;;;;;;2345398;57;21148;-47
2022/11/23 04:26:43;;;;;;;38.92;19.70;;;6.20;77.50;;;;;;2345420;57;21536;-48
2022/11/23 04:29:10;;;;;;;46.63;21.60;;;6.20;77.30;;;;;;2344311;57;21129;-49
2022/11/23 04:31:37;;;;;;;43.25;19.80;;;6.20;77.20;;;;;;2345310;57;21132;-48
2022/11/23 04:34:04;;;;;;;40.75;20.92;;;6.20;77.10;;;;;;2344991;57;21046;-48
2022/11/23 04:36:31;;;;;;;45.72;19.70;;;6.20;77.10;;;;;;2345403;57;21109;-50
2022/11/23 04:38:59;;;;;;;35.28;18.23;;;6.20;77.10;;;;;;2344713;57;21192;-51
2022/11/23 04:41:26;;;;;;;41.30;19.37;;;6.20;77.10;;;;;;2345015;57;21061;-51
2022/11/23 04:43:53;;;;;;;40.88;20.10;;;6.20;77.10;;;;;;2345561;57;21054;-48
2022/11/23 04:46:20;;;;;;;34.55;19.27;;;6.20;77.00;;;;;;2345033;57;21090;-48
2022/11/23 04:48:47;;;;;;;47.13;23.73;;;6.20;77.10;;;;;;2346061;57;21063;-48
2022/11/23 04:51:15;;;;;;;42.72;20.65;;;6.20;77.00;;;;;;2344846;57;22149;-47
2022/11/23 04:53:42;;;;;;;35.90;18.67;;;6.20;77.20;;;;;;2345524;57;21148;-47
2022/11/23 04:56:09;;;;;;;44.05;18.80;;;6.20;77.10;;;;;;2345478;57;21197;-50
2022/11/23 04:58:36;;;;;;;39.72;18.33;;;6.20;77.20;;;;;;2345734;57;21061;-47
2022/11/23 05:01:05;;;;;;;42.08;19.33;;;6.30;77.20;;;;;;2345183;57;21077;-49
2022/11/23 05:03:33;;;;;;;39.28;18.15;;;6.30;77.20;;;;;;2345457;57;21680;-48
2022/11/23 05:06:01;;;;;;;44.25;20.83;;;6.30;77.20;;;;;;2347259;57;21704;-48
2022/11/23 05:08:29;;;;;;;34.00;18.00;;;6.30;77.00;;;;;;2346080;57;21156;-47
2022/11/23 05:10:56;;;;;;;65.60;19.65;;;6.30;77.00;;;;;;2345857;57;21109;-48
2022/11/23 05:13:23;;;;;;;37.55;19.10;;;6.30;76.90;;;;;;2345396;57;21515;-48
2022/11/23 05:15:51;;;;;;;36.45;18.90;;;6.30;77.00;;;;;;2344413;57;21542;-49
2022/11/23 05:18:18;;;;;;;41.28;20.35;;;6.30;77.10;;;;;;2343265;57;21121;-52
2022/11/23 05:20:45;;;;;;;41.20;20.17;;;6.30;77.10;;;;;;2344456;57;21619;-49
2022/11/23 05:23:12;;;;;;;37.80;19.12;;;6.40;77.20;;;;;;2343949;57;21552;-51
2022/11/23 05:25:39;;;;;;;34.65;18.80;;;6.30;77.20;;;;;;2345137;57;22160;-51
2022/11/23 05:28:06;;;;;;;43.45;18.55;;;6.40;77.40;;;;;;2344754;57;21157;-50
2022/11/23 05:30:34;;;;;;;37.15;17.98;;;6.40;77.40;;;;;;2344346;57;21200;-48
2022/11/23 05:33:02;;;;;;;47.22;19.37;;;6.40;77.40;;;;;;2344630;57;21053;-47
2022/11/23 05:35:29;;;;;;;33.88;17.37;;;6.40;77.20;;;;;;2344006;57;21394;-48
2022/11/23 05:37:57;;;;;;;34.40;17.50;;;6.40;77.40;;;;;;2343911;57;21137;-48
2022/11/23 05:40:24;;;;;;;33.05;17.50;;;6.40;77.40;;;;;;2343831;57;21533;-47
2022/11/23 05:42:55;;;;;;;37.42;17.52;;;6.40;77.40;;;;;;2344604;57;21062;-48
2022/11/23 05:45:23;;;;;;;34.50;17.73;;;6.40;77.40;;;;;;2345918;57;21127;-47
2022/11/23 05:47:51;;;;;;;33.63;17.58;;;6.40;77.30;;;;;;2346279;57;21034;-47
2022/11/23 05:52:56;;;;;;;40.72;19.45;;;6.40;77.30;;;;;;2354006;57;22062;-50
2022/11/23 05:55:24;;;;;;;32.45;17.48;;;6.40;77.30;;;;;;2358181;56;21054;-48
2022/11/23 05:57:51;;;;;;;33.22;17.58;;;6.40;77.30;;;;;;2373266;56;21610;-47
2022/11/23 06:00:19;;;;;;;28.48;15.38;;;6.40;77.40;;;;;;2372983;56;21607;-49
2022/11/23 06:02:46;;;;;;;42.20;18.42;;;6.40;77.30;;;;;;2373778;56;21048;-50
2022/11/23 06:05:14;;;;;;;30.40;15.98;;;6.50;77.30;;;;;;2373919;56;21111;-47
2022/11/23 06:07:41;;;;;;;32.47;16.58;;;6.50;77.40;;;;;;2374194;56;21103;-47
2022/11/23 06:10:10;;;;;;;35.10;16.60;;;6.60;77.50;;;;;;2373219;56;21313;-47
2022/11/23 06:12:37;;;;;;;38.80;17.60;;;6.60;77.30;;;;;;2373490;56;21143;-48
2022/11/23 06:15:07;;;;;;;34.58;18.67;;;6.50;77.30;;;;;;2372801;56;21634;-49
2022/11/23 06:17:35;;;;;;;35.63;17.17;;;6.50;77.30;;;;;;2372869;56;21102;-50
2022/11/23 06:20:03;;;;;;;35.85;17.62;;;6.50;77.40;;;;;;2373325;56;21032;-52
2022/11/23 06:22:31;;;;;;;36.08;18.48;;;6.50;77.60;;;;;;2374933;56;21040;-47
2022/11/23 06:24:58;;;;;;;38.20;17.95;;;6.50;77.80;;;;;;2375204;56;21166;-52
2022/11/23 06:27:25;;;;;;;37.08;19.02;;;6.50;78.00;;;;;;2374556;56;21020;-51
2022/11/23 06:29:52;;;;;;;44.60;17.77;;;6.50;78.70;;;;;;2374774;56;21059;-48
2022/11/23 06:32:19;;;;;;;33.50;15.55;;;6.50;79.60;;;;;;2372872;56;21087;-48
2022/11/23 06:34:46;;;;;;;32.58;17.02;;;6.60;79.50;;;;;;2373557;56;21067;-48
2022/11/23 06:37:13;;;;;;;30.85;16.87;;;6.60;79.00;;;;;;2373867;56;21540;-51
2022/11/23 06:39:40;;;;;;;34.03;16.60;;;6.60;79.30;;;;;;2373498;56;21032;-50
2022/11/23 06:42:07;;;;;;;29.50;15.90;;;6.60;78.30;;;;;;2374001;56;21055;-48
2022/11/23 06:44:35;;;;;;;34.28;17.00;;;6.50;78.10;;;;;;2373633;56;21047;-52
2022/11/23 06:47:02;;;;;;;34.78;17.23;;;6.60;78.10;;;;;;2373370;56;21627;-49
2022/11/23 06:49:29;;;;;;;33.60;17.52;;;6.60;78.10;;;;;;2373732;56;21052;-51
2022/11/23 06:51:56;;;;;;;33.80;17.95;;;6.60;78.20;;;;;;2373101;56;21111;-50
2022/11/23 06:54:23;;;;;;;31.85;17.17;;;6.60;78.20;;;;;;2373998;56;21056;-53
2022/11/23 06:56:50;;;;;;;35.75;17.33;;;6.60;78.40;;;;;;2373657;56;21055;-50
2022/11/23 06:59:17;;;;;;;33.47;15.80;;;6.60;78.50;;;;;;2373613;56;21552;-51
2022/11/23 07:01:44;;;;;;;30.30;16.33;;;6.60;78.50;;;;;;2372816;56;21100;-52
2022/11/23 07:04:12;;;;;;;35.03;16.60;;;6.60;78.70;;;;;;2372338;56;21302;-52
2022/11/23 07:06:40;;;;;;;32.08;16.08;;;6.60;78.70;;;;;;2373158;56;21076;-47
2022/11/23 07:09:08;;;;;;;33.28;16.58;;;6.60;78.80;;;;;;2373241;56;21575;-50
2022/11/23 07:11:35;;;;;;;34.60;16.70;;;6.60;78.90;;;;;;2372760;56;21328;-48
2022/11/23 07:14:02;;;;;;;89.32;22.25;;;6.60;79.00;;;;;;2373251;56;21031;-49
2022/11/23 07:16:29;;;;;;;35.17;15.73;;;6.60;79.10;;;;;;2373274;56;21186;-50
2022/11/23 07:18:57;;;;;;;32.17;15.65;;;6.60;79.30;;;;;;2373687;56;21044;-49
2022/11/23 07:21:25;;;;;;;32.80;16.55;;;6.60;79.30;;;;;;2374228;56;21043;-51
2022/11/23 07:23:52;;;;;;;82.62;19.87;;;6.60;79.50;;;;;;2373312;56;21657;-50
2022/11/23 07:26:19;;;;;;;32.47;16.05;;;6.60;79.60;;;;;;2373736;56;21038;-50
2022/11/23 07:28:46;;;;;;;31.25;15.82;;;6.60;79.60;;;;;;2373801;56;21535;-51
2022/11/23 07:31:14;;;;;;;36.22;17.90;;;6.70;79.90;;;;;;2373566;56;21040;-49
2022/11/23 07:33:44;;;;;;;33.38;16.42;;;6.60;79.80;;;;;;2373640;56;21048;-53
2022/11/23 07:36:11;;;;;;;33.13;14.48;;;6.60;79.90;;;;;;2374318;56;21492;-51
2022/11/23 07:38:38;;;;;;;34.20;15.85;;;6.60;80.00;;;;;;2374555;56;21083;-49
2022/11/23 07:41:06;;;;;;;27.42;15.38;;;6.70;80.20;;;;;;2375022;56;21619;-52
2022/11/23 07:43:33;;;;;;;46.37;16.15;;;6.70;80.20;;;;;;2374700;56;21028;-50
2022/11/23 07:46:00;;;;;;;31.05;15.23;;;6.70;80.30;;;;;;2374204;56;21059;-53
2022/11/23 07:48:27;;;;;;;26.45;15.57;;;6.80;81.20;;;;;;2373810;56;21702;-50
2022/11/23 07:50:55;;;;;;;49.97;17.17;;;6.80;80.50;;;;;;2373447;56;21071;-51
2022/11/23 07:53:22;;;;;;;30.10;15.07;;;6.80;80.50;;;;;;2372809;56;21111;-54
2022/11/23 07:55:54;;;;;;;40.08;15.45;;;6.80;80.60;;;;;;2373015;56;21072;-53
2022/11/23 07:58:21;;;;;;;27.52;15.20;;;6.80;80.60;;;;;;2374599;56;21528;-48
2022/11/23 08:00:48;;;;;;;25.20;13.50;;;6.90;80.60;;;;;;2374369;56;21071;-48
2022/11/23 08:03:15;;;;;;;25.52;13.40;;;6.90;80.60;;;;;;2373767;56;21048;-48
2022/11/23 08:05:42;;;;;;;26.85;13.82;;;6.90;80.60;;;;;;2373627;56;21044;-49
2022/11/23 08:08:10;;;;;;;30.65;14.85;;;6.90;80.60;;;;;;2372868;56;21060;-48
2022/11/23 08:10:38;;;;;;;26.73;14.18;;;6.90;80.50;;;;;;2373805;56;21095;-49
2022/11/23 08:13:06;;;;;;;24.45;13.23;;;6.90;80.70;;;;;;2372850;56;21131;-48
2022/11/23 08:15:33;;;;;;;24.58;13.07;;;7.00;80.80;;;;;;2371670;56;21603;-49
2022/11/23 08:18:02;;;;;;;25.42;12.80;;;7.00;80.80;;;;;;2370516;56;21064;-51
2022/11/23 08:20:30;;;;;;;23.67;13.85;;;7.00;80.80;;;;;;2372499;56;21004;-48
2022/11/23 08:22:58;;;;;;;24.60;13.45;;;7.00;80.80;;;;;;2373214;56;21572;-50
2022/11/23 08:25:26;;;;;;;30.35;15.77;;;7.10;80.90;;;;;;2372625;56;21594;-49
2022/11/23 08:27:57;;;;;;;21.92;12.30;;;7.10;80.90;;;;;;2372590;56;21527;-51
2022/11/23 08:30:25;;;;;;;33.55;13.23;;;7.10;80.90;;;;;;2372034;56;22079;-52
2022/11/23 08:32:52;;;;;;;23.20;12.80;;;7.10;80.90;;;;;;2372037;56;21583;-50
2022/11/23 08:35:20;;;;;;;20.83;12.25;;;7.10;80.80;;;;;;2371121;56;21071;-51
2022/11/23 08:37:47;;;;;;;20.75;11.65;;;7.20;80.80;;;;;;2371334;56;21139;-51
2022/11/23 08:40:15;;;;;;;24.50;13.18;;;7.20;80.80;;;;;;2372250;56;21119;-49
2022/11/23 08:42:43;;;;;;;26.87;12.80;;;7.20;80.70;;;;;;2370663;56;21115;-52
2022/11/23 08:45:11;;;;;;;25.65;12.50;;;7.20;80.70;;;;;;2371752;56;21523;-53
2022/11/23 08:47:38;;;;;;;21.50;11.10;;;7.20;80.70;;;;;;2373033;56;21410;-53
2022/11/23 08:50:07;;;;;;;22.52;12.52;;;7.30;80.70;;;;;;2372632;56;21055;-51
2022/11/23 08:52:34;;;;;;;26.37;13.68;;;7.30;80.70;;;;;;2373354;56;21083;-50
2022/11/23 08:55:02;;;;;;;22.40;12.70;;;7.20;80.50;;;;;;2373423;56;21020;-48
2022/11/23 08:57:29;;;;;;;23.02;12.23;;;7.30;80.70;;;;;;2373979;56;21094;-52
2022/11/23 08:59:56;;;;;;;25.20;12.77;;;7.30;80.70;;;;;;2374439;56;21504;-53
2022/11/23 09:02:23;;;;;;;24.02;12.88;;;7.30;80.70;;;;;;2372880;56;21048;-52
2022/11/23 09:04:50;;;;;;;25.27;12.65;;;7.30;80.60;;;;;;2372975;56;21107;-52
2022/11/23 09:07:17;;;;;;;23.75;12.25;;;7.30;80.70;;;;;;2371493;56;21047;-52
2022/11/23 09:09:45;;;;;;;19.17;11.25;;;7.30;80.80;;;;;;2371942;56;21132;-51
2022/11/23 09:12:12;;;;;;;24.63;12.52;;;7.40;80.90;;;;;;2372781;56;21103;-52
2022/11/23 09:14:39;;;;;;;22.00;11.88;;;7.40;80.90;;;;;;2373791;56;21119;-52
2022/11/23 09:17:06;;;;;;;21.48;11.88;;;7.50;80.90;;;;;;2373606;56;21059;-51
2022/11/23 09:19:33;;;;;;;26.45;12.85;;;7.40;80.70;;;;;;2372068;56;21028;-51
2022/11/23 09:22:00;;;;;;;24.00;11.82;;;7.50;80.70;;;;;;2373206;56;21111;-50
2022/11/23 09:24:27;;;;;;;21.52;12.00;;;7.50;80.90;;;;;;2371844;56;21341;-51
2022/11/23 09:26:55;;;;;;;26.80;13.38;;;7.50;80.90;;;;;;2372849;56;21044;-51
2022/11/23 09:29:24;;;;;;;24.35;11.63;;;7.50;81.00;;;;;;2372161;56;21563;-51
2022/11/23 09:31:52;;;;;;;19.05;11.73;;;7.60;81.10;;;;;;2372377;56;21039;-49
2022/11/23 09:34:22;;;;;;;21.35;12.35;;;7.60;81.10;;;;;;2373671;56;21107;-52
2022/11/23 09:36:49;;;;;;;24.17;12.07;;;7.60;80.90;;;;;;2373933;56;21032;-52
2022/11/23 09:39:16;;;;;;;20.25;11.23;;;7.60;80.90;;;;;;2372277;56;21115;-51
2022/11/23 09:42:03;;;;;;;24.05;11.63;;;7.70;80.90;;;;;;2369977;56;21526;-52
2022/11/23 09:44:42;;;;;;;21.90;11.65;;;7.70;80.90;;;;;;2372908;56;21595;-52
2022/11/23 09:47:28;;;;;;;24.52;11.38;;;7.80;80.80;;;;;;2370616;56;21119;-49
2022/11/23 09:50:02;;;;;;;25.12;11.68;;;7.80;80.70;;;;;;2372033;56;21579;-53
2022/11/23 09:52:30;;;;;;;19.30;10.75;;;7.80;80.60;;;;;;2373669;56;21136;-53
2022/11/23 09:55:02;;;;;;;23.20;11.98;;;7.90;80.70;;;;;;2373671;56;21504;-52
2022/11/23 09:57:33;;;;;;;22.70;11.70;;;7.90;80.60;;;;;;2373376;56;21539;-49
2022/11/23 10:00:05;;;;;;;18.40;10.63;;;7.90;80.50;;;;;;2373479;56;21529;-52
2022/11/23 10:02:36;;;;;;;22.85;11.32;;;8.00;80.60;;;;;;2373576;56;21035;-52
2022/11/23 10:05:05;;;;;;;17.73;11.27;;;8.00;80.60;;;;;;2372155;56;21560;-52
2022/11/23 10:07:45;;;;;;;18.60;11.35;;;8.00;80.50;;;;;;2374728;56;21564;-52
2022/11/23 10:10:28;;;;;;;23.02;12.15;;;8.10;80.50;;;;;;2374982;56;21095;-53
2022/11/23 10:13:06;;;;;;;20.45;11.35;;;8.10;80.40;;;;;;2374743;56;21095;-53
2022/11/23 10:15:40;;;;;;;20.48;10.68;;;8.10;80.40;;;;;;2374957;56;21039;-49
2022/11/23 10:18:23;;;;;;;17.98;10.15;;;8.10;80.30;;;;;;2374049;56;21056;-53
2022/11/23 10:20:54;;;;;;;;;;;8.20;80.40;;;;;;2376529;56;21048;-50
2022/11/23 10:23:35;;;;;;;20.30;10.35;;;8.20;80.30;;;;;;2372436;56;20321;-48
2022/11/23 10:26:02;;;;;;;22.37;10.38;;;8.30;80.00;;;;;;2373651;56;21588;-48
2022/11/23 10:28:31;;;;;;;19.70;10.82;;;8.30;80.30;;;;;;2374058;56;21060;-49
2022/11/23 10:31:10;;;;;;;18.10;9.77;;;8.30;80.40;;;;;;2374454;56;21542;-49
2022/11/23 10:33:43;;;;;;;15.73;9.70;;;8.40;80.30;;;;;;2373625;56;22300;-49
2022/11/23 10:36:12;;;;;;;20.35;10.27;;;8.40;80.10;;;;;;2373609;56;21119;-48
2022/11/23 10:38:40;;;;;;;21.10;9.52;;;8.40;79.90;;;;;;2372672;56;21044;-51
2022/11/23 10:41:09;;;;;;;21.23;12.75;;;8.50;80.00;;;;;;2373399;56;21075;-52
2022/11/23 10:46:36;;;;;;;15.75;9.18;;;8.40;80.90;;;;;;2348881;57;22131;-48
2022/11/23 10:49:18;;;;;;;18.10;10.00;;;8.50;80.40;;;;;;2346406;57;21538;-49
2022/11/23 10:51:57;;;;;;;15.52;8.93;;;8.50;80.40;;;;;;2347340;57;21021;-48
2022/11/23 10:54:28;;;;;;;19.83;8.90;;;8.60;80.50;;;;;;2347956;57;21098;-52
2022/11/23 10:56:57;;;;;;;19.37;8.85;;;8.60;80.50;;;;;;2346618;57;21128;-50
2022/11/23 10:59:33;;;;;;;16.05;8.82;;;8.70;80.30;;;;;;2347027;57;21585;-49
2022/11/23 11:02:19;;;;;;;16.65;8.40;;;8.70;80.10;;;;;;2347362;57;21109;-48
2022/11/23 11:04:47;;;;;;;13.82;9.27;;;8.80;80.10;;;;;;2347316;57;21120;-49
2022/11/23 11:07:22;;;;;;;12.80;8.38;;;8.70;80.00;;;;;;2347839;57;21684;-51
2022/11/23 11:09:53;;;;;;;17.20;8.02;;;8.80;80.00;;;;;;2347846;57;21098;-49
2022/11/23 11:12:20;;;;;;;15.07;7.65;;;8.80;80.00;;;;;;2346080;57;21072;-51
2022/11/23 11:15:14;;;;;;;14.77;8.65;;;8.80;79.90;;;;;;2347379;57;21172;-48
2022/11/23 11:17:41;;;;;;;;;;;8.80;79.70;;;;;;2350471;57;21637;-49
2022/11/23 11:20:30;;;;;;;12.55;8.00;;;9.00;79.60;;;;;;2345135;57;20157;-49
2022/11/23 11:22:59;;;;;;;16.23;8.82;;;8.90;79.30;;;;;;2346962;57;21034;-49
2022/11/23 11:25:32;;;;;;;19.67;8.25;;;8.90;79.50;;;;;;2346390;57;21412;-52
2022/11/23 11:27:59;;;;;;;16.52;8.00;;;8.90;79.50;;;;;;2347611;57;21022;-48
2022/11/23 11:30:36;;;;;;;17.15;9.02;;;9.00;79.60;;;;;;2348225;57;21030;-49
2022/11/23 11:33:10;;;;;;;18.17;9.52;;;9.00;79.50;;;;;;2347423;57;21545;-48
2022/11/23 11:35:41;;;;;;;14.40;8.65;;;9.00;79.50;;;;;;2344448;57;21065;-50
2022/11/23 11:38:14;;;;;;;16.83;7.82;;;9.10;79.50;;;;;;2345660;57;21053;-50
2022/11/23 11:40:46;;;;;;;17.52;8.63;;;9.10;79.40;;;;;;2347438;57;21577;-49
2022/11/23 11:43:18;;;;;;;15.50;7.82;;;9.20;79.20;;;;;;2347299;57;21530;-49
2022/11/23 11:45:47;;;;;;;14.77;8.60;;;9.10;79.00;;;;;;2347580;57;21620;-49
2022/11/23 11:48:19;;;;;;;14.68;7.45;;;9.20;78.90;;;;;;2348199;57;21125;-53
2022/11/23 11:50:51;;;;;;;11.75;6.93;;;9.10;78.90;;;;;;2347019;57;21631;-49
2022/11/23 11:53:22;;;;;;;15.18;7.62;;;9.20;79.00;;;;;;2346854;57;22207;-51
2022/11/23 11:55:54;;;;;;;17.12;8.57;;;9.20;79.20;;;;;;2345959;57;21626;-52
2022/11/23 11:58:24;;;;;;;16.37;7.80;;;9.20;79.30;;;;;;2345421;57;21525;-53
2022/11/23 12:00:57;;;;;;;14.55;8.52;;;9.30;79.30;;;;;;2346050;57;21203;-51
2022/11/23 12:03:37;;;;;;;11.23;7.12;;;9.30;79.10;;;;;;2347507;57;21022;-51
2022/11/23 12:06:10;;;;;;;11.65;7.15;;;9.30;79.10;;;;;;2347102;57;21109;-48
2022/11/23 12:08:45;;;;;;;15.45;7.85;;;9.30;79.10;;;;;;2347683;57;21100;-50
2022/11/23 12:11:13;;;;;;;23.50;8.98;;;9.30;79.30;;;;;;2346034;57;22315;-50
2022/11/23 12:13:43;;;;;;;13.73;8.10;;;9.40;79.50;;;;;;2344025;57;21065;-52
2022/11/23 12:16:21;;;;;;;13.80;8.45;;;9.40;79.40;;;;;;2345450;57;21069;-51
2022/11/23 12:19:02;;;;;;;20.65;9.07;;;9.40;79.40;;;;;;2345214;57;21589;-53
2022/11/23 12:22:00;;;;;;;13.43;8.35;;;9.40;79.00;;;;;;2346094;57;21574;-52
2022/11/23 12:27:21;;;;;;;18.98;10.20;;;9.40;78.50;;;;;;2307436;57;27925;-50
2022/11/23 12:30:12;;;;;;;16.42;8.68;;;9.30;80.10;;;;;;2316267;58;21119;-50
2022/11/23 12:32:46;;;;;;;14.50;8.63;;;9.40;79.80;;;;;;2318545;58;21088;-51
2022/11/23 12:35:30;;;;;;;14.55;7.75;;;9.50;79.20;;;;;;2317022;58;21128;-53
2022/11/23 12:38:09;;;;;;;12.75;7.97;;;9.50;79.00;;;;;;2316707;58;21840;-52
2022/11/23 12:41:08;;;;;;;13.35;8.15;;;9.50;78.90;;;;;;2316902;58;21064;-51
2022/11/23 12:43:46;;;;;;;15.88;8.10;;;9.50;79.40;;;;;;2315813;58;21060;-51
2022/11/23 12:46:21;;;;;;;17.02;7.53;;;9.60;80.40;;;;;;2317880;58;21044;-51
2022/11/23 12:49:00;;;;;;;15.52;7.00;;;9.60;79.70;;;;;;2317919;58;21584;-49
2022/11/23 12:51:36;;;;;;;17.67;8.07;;;9.60;79.60;;;;;;2317308;58;21623;-52
2022/11/23 12:54:23;;;;;;;13.73;7.68;;;9.60;79.50;;;;;;2315409;52;21120;-55
2022/11/23 12:57:00;;;;;;;12.68;6.82;;;9.70;79.50;;;;;;2349312;57;22240;-51
2022/11/23 12:59:43;;;;;;;15.45;7.32;;;9.70;79.40;;;;;;2349056;57;21032;-56
2022/11/23 13:02:30;;;;;;;21.10;8.02;;;9.70;79.30;;;;;;2349291;57;21512;-57
2022/11/23 13:05:22;;;;;;;13.00;8.00;;;9.70;79.00;;;;;;2338027;57;21106;-56
2022/11/23 13:08:07;;;;;;;16.77;7.72;;;9.70;78.90;;;;;;2322745;58;21025;-52
2022/11/23 13:10:47;;;;;;;14.32;7.15;;;9.70;78.60;;;;;;2321223;58;21544;-55